Time;durP1;ratioP1;P1;durP2;ratioP2;P2;SDS_P1;SDS_P2;PMS_P1;PMS_P2;Temp;Humidity;BMP_temperature;BMP_pressure;BME280_temperature;BME280_humidity;BME280_pressure;Samples;Min_cycle;Max_cycle;Signal;HPM_P1;HPM_P2
2023/10/20 00:01:35;;;;;;;6.10;5.60;;;;;;;14.08;100.00;97381.47;5024542;28;20722;-82
2023/10/20 00:04:03;;;;;;;6.50;6.00;;;;;;;14.06;100.00;97386.78;5033038;28;20420;-82
2023/10/20 00:06:29;;;;;;;5.90;5.43;;;;;;;14.07;100.00;97383.22;5053545;28;20722;-81
2023/10/20 00:08:55;;;;;;;5.43;5.00;;;;;;;14.08;100.00;97387.50;5039746;28;20924;-83
2023/10/20 00:11:20;;;;;;;5.83;5.43;;;;;;;14.08;100.00;97387.50;5028778;28;20231;-82
2023/10/20 00:13:45;;;;;;;5.13;4.73;;;;;;;14.09;100.00;97378.75;5027674;28;20202;-82
2023/10/20 00:16:11;;;;;;;5.20;4.67;;;;;;;14.10;100.00;97385.63;5027861;28;20194;-80
2023/10/20 00:18:36;;;;;;;4.90;4.57;;;;;;;14.11;100.00;97373.47;5025283;28;20187;-82
2023/10/20 00:21:01;;;;;;;5.00;4.60;;;;;;;14.12;100.00;97347.34;5028025;28;20189;-81
2023/10/20 00:23:27;;;;;;;4.97;4.67;;;;;;;14.10;100.00;97348.41;5023152;28;20239;-81
2023/10/20 00:25:52;;;;;;;4.97;4.57;;;;;;;14.09;100.00;97344.13;5025080;28;20268;-80
2023/10/20 00:28:18;;;;;;;4.37;4.07;;;;;;;14.12;100.00;97346.53;5019722;28;20259;-81
2023/10/20 00:30:43;;;;;;;5.20;4.70;;;;;;;14.10;100.00;97344.00;5027619;28;20728;-81
2023/10/20 00:33:08;;;;;;;5.30;4.80;;;;;;;14.09;100.00;97336.34;5020252;28;20307;-81
2023/10/20 00:35:34;;;;;;;4.60;4.20;;;;;;;14.08;100.00;97325.09;5023100;28;20278;-82
2023/10/20 00:37:59;;;;;;;4.50;4.20;;;;;;;14.07;100.00;97317.41;5027863;28;20187;-81
2023/10/20 00:40:25;;;;;;;4.87;4.57;;;;;;;14.06;100.00;97315.75;5024704;28;20193;-81
2023/10/20 00:42:51;;;;;;;4.97;4.57;;;;;;;14.04;100.00;97310.66;5025971;28;20199;-81
2023/10/20 00:45:16;;;;;;;4.80;4.40;;;;;;;14.03;100.00;97306.41;5023838;28;20198;-82
2023/10/20 00:47:44;;;;;;;5.20;4.70;;;;;;;14.02;100.00;97307.34;5023156;28;20198;-81
2023/10/20 00:50:13;;;;;;;4.37;4.00;;;;;;;14.01;100.00;97316.06;5019641;28;20197;-81
2023/10/20 00:52:41;;;;;;;4.93;4.53;;;;;;;13.99;100.00;97316.16;5018846;28;20678;-80
2023/10/20 00:55:08;;;;;;;4.30;4.00;;;;;;;14.00;100.00;97317.00;5028241;28;20181;-80
2023/10/20 00:57:38;;;;;;;4.30;4.00;;;;;;;14.00;100.00;97311.81;5018009;28;20180;-82
2023/10/20 01:00:04;;;;;;;4.20;3.90;;;;;;;13.98;100.00;97301.53;5021491;28;20218;-80
2023/10/20 01:02:30;;;;;;;3.70;3.40;;;;;;;13.98;100.00;97306.72;5022110;28;20228;-79
2023/10/20 01:04:59;;;;;;;4.60;4.20;;;;;;;13.98;100.00;97303.28;5025436;28;20755;-81
2023/10/20 01:07:25;;;;;;;4.07;3.77;;;;;;;13.98;100.00;97291.13;5020514;28;20197;-79
2023/10/20 01:09:50;;;;;;;5.50;5.03;;;;;;;13.96;100.00;97286.97;5023447;28;20188;-79
2023/10/20 01:12:16;;;;;;;4.83;4.43;;;;;;;13.94;100.00;97283.63;5021852;28;20242;-79
2023/10/20 01:14:42;;;;;;;5.10;4.63;;;;;;;13.89;100.00;97277.94;5021669;28;20233;-79
2023/10/20 01:17:09;;;;;;;5.30;4.90;;;;;;;13.87;100.00;97273.69;5022902;28;20180;-80
2023/10/20 01:19:37;;;;;;;4.73;4.20;;;;;;;13.89;100.00;97257.16;5019693;28;20203;-80
2023/10/20 01:22:03;;;;;;;4.70;4.30;;;;;;;13.87;100.00;97252.03;5023466;28;20199;-80
2023/10/20 01:24:29;;;;;;;4.90;4.50;;;;;;;13.89;100.00;97265.75;5015672;28;20241;-81
2023/10/20 01:26:54;;;;;;;3.50;3.30;;;;;;;13.90;100.00;97262.22;5020238;28;20188;-82
2023/10/20 01:29:20;;;;;;;4.00;3.70;;;;;;;13.93;100.00;97258.56;5028398;28;20195;-82
2023/10/20 01:31:45;;;;;;;3.67;3.43;;;;;;;13.92;100.00;97242.16;5022798;28;20222;-80
2023/10/20 01:34:11;;;;;;;3.63;3.33;;;;;;;13.91;100.00;97245.69;5017904;28;20766;-80
2023/10/20 01:36:37;;;;;;;3.57;3.27;;;;;;;13.83;100.00;97241.03;5020399;28;20872;-78
2023/10/20 01:39:02;;;;;;;4.40;4.00;;;;;;;13.84;100.00;97231.50;5018642;28;20202;-80
2023/10/20 01:41:27;;;;;;;3.70;3.40;;;;;;;13.82;100.00;97220.38;5021300;28;20194;-80
2023/10/20 01:43:53;;;;;;;3.80;3.50;;;;;;;13.83;100.00;97227.22;5016804;28;20213;-80
2023/10/20 01:46:18;;;;;;;3.87;3.57;;;;;;;13.86;100.00;97220.03;5018787;28;20262;-79
2023/10/20 01:48:44;;;;;;;3.70;3.40;;;;;;;13.89;100.00;97210.38;5021400;28;20673;-79
2023/10/20 01:51:09;;;;;;;3.70;3.40;;;;;;;13.91;100.00;97203.28;5012339;28;20661;-80
2023/10/20 01:53:35;;;;;;;3.43;3.23;;;;;;;13.92;100.00;97205.75;5007624;28;20205;-81
2023/10/20 01:56:01;;;;;;;4.33;3.93;;;;;;;13.93;100.00;97189.22;5010897;28;20191;-81
2023/10/20 01:58:26;;;;;;;4.30;3.90;;;;;;;13.94;100.00;97187.44;5013363;28;20195;-80
2023/10/20 02:00:52;;;;;;;4.63;4.27;;;;;;;13.93;100.00;97173.63;5018704;28;20194;-80
2023/10/20 02:03:19;;;;;;;4.20;3.90;;;;;;;13.92;100.00;97158.97;5022741;28;20199;-81
2023/10/20 02:05:45;;;;;;;4.63;4.23;;;;;;;13.90;100.00;97162.63;5020225;28;20281;-82
2023/10/20 02:08:10;;;;;;;4.27;3.87;;;;;;;13.90;100.00;97153.06;5048712;28;20179;-84
2023/10/20 02:10:36;;;;;;;4.40;4.00;;;;;;;13.90;100.00;97140.06;5047866;28;20182;-81
2023/10/20 02:13:03;;;;;;;4.27;3.97;;;;;;;13.93;100.00;97136.38;5025243;28;20217;-80
2023/10/20 02:15:29;;;;;;;3.83;3.53;;;;;;;13.94;100.00;97133.69;5031929;28;20176;-82
2023/10/20 02:17:55;;;;;;;3.67;3.30;;;;;;;13.94;100.00;97120.69;5028410;28;20669;-81
2023/10/20 02:20:23;;;;;;;3.93;3.63;;;;;;;13.92;100.00;97109.59;5021908;28;20181;-81
2023/10/20 02:22:50;;;;;;;4.27;3.60;;;;;;;13.91;100.00;97112.31;5026088;28;20781;-83
2023/10/20 02:25:16;;;;;;;3.90;3.60;;;;;;;13.91;100.00;97110.53;5016200;28;20221;-81
2023/10/20 02:27:42;;;;;;;3.70;3.43;;;;;;;13.91;100.00;97102.72;5016115;28;20282;-81
2023/10/20 02:30:09;;;;;;;3.47;3.27;;;;;;;13.91;100.00;97084.53;5024473;28;20195;-82
2023/10/20 02:32:35;;;;;;;3.63;3.43;;;;;;;13.91;100.00;97079.31;5022042;28;20213;-82
2023/10/20 02:35:01;;;;;;;3.60;3.30;;;;;;;13.91;100.00;97070.72;5017108;28;20181;-81
2023/10/20 02:37:26;;;;;;;4.23;3.83;;;;;;;13.89;100.00;97060.41;5023520;28;20273;-81
2023/10/20 02:39:52;;;;;;;4.10;3.60;;;;;;;13.87;100.00;97062.28;5025730;28;20319;-80
2023/10/20 02:42:17;;;;;;;4.20;3.90;;;;;;;13.86;100.00;97061.47;5010169;28;20295;-81
2023/10/20 02:44:43;;;;;;;3.63;3.40;;;;;;;13.87;100.00;97063.13;5025650;28;20681;-82
2023/10/20 02:47:08;;;;;;;3.60;3.40;;;;;;;13.86;100.00;97053.69;5025589;28;20191;-82
2023/10/20 02:49:35;;;;;;;3.53;3.33;;;;;;;13.87;100.00;97062.28;5023987;28;20277;-81
2023/10/20 02:52:00;;;;;;;4.83;3.77;;;;;;;13.85;100.00;97054.63;5030070;28;20229;-80
2023/10/20 02:54:26;;;;;;;4.23;3.93;;;;;;;13.84;100.00;97049.56;5028358;28;20187;-82
2023/10/20 02:56:51;;;;;;;4.20;3.80;;;;;;;13.83;100.00;97046.09;5026460;28;20193;-82
2023/10/20 02:59:17;;;;;;;4.10;3.80;;;;;;;13.82;100.00;97043.63;5033980;28;20207;-83
2023/10/20 03:01:43;;;;;;;4.00;3.70;;;;;;;13.82;100.00;97034.06;5033571;28;20198;-83
2023/10/20 03:04:09;;;;;;;4.00;3.67;;;;;;;13.86;100.00;97039.84;5030568;28;20494;-81
2023/10/20 03:06:34;;;;;;;3.90;3.60;;;;;;;13.83;100.00;97035.72;5027332;28;20339;-82
2023/10/20 03:09:00;;;;;;;4.23;3.93;;;;;;;13.82;100.00;97041.84;5030906;28;20558;-83
2023/10/20 03:11:25;;;;;;;3.90;3.60;;;;;;;13.83;100.00;97035.72;5031379;28;20213;-82
2023/10/20 03:13:50;;;;;;;3.90;3.60;;;;;;;13.84;100.00;97039.97;5019734;28;20317;-83
2023/10/20 03:16:16;;;;;;;4.43;4.13;;;;;;;13.82;100.00;97018.47;5016487;28;20276;-78
2023/10/20 03:18:44;;;;;;;4.90;4.50;;;;;;;13.79;100.00;96997.06;5030683;28;20283;-80
2023/10/20 03:21:10;;;;;;;4.83;4.40;;;;;;;13.74;100.00;96981.00;5027159;28;20188;-81
2023/10/20 03:23:36;;;;;;;5.50;4.83;;;;;;;13.68;100.00;96956.28;5028180;28;21183;-82
2023/10/20 03:26:02;;;;;;;5.53;5.03;;;;;;;13.66;100.00;96942.59;5032126;28;20241;-81
2023/10/20 03:28:28;;;;;;;5.97;5.23;;;;;;;13.68;100.00;96932.91;5026247;28;20239;-81
2023/10/20 03:30:53;;;;;;;4.90;4.50;;;;;;;13.68;100.00;96925.13;5026328;28;20224;-81
2023/10/20 03:33:19;;;;;;;6.03;4.97;;;;;;;13.70;100.00;96920.63;5019687;28;20204;-80
2023/10/20 03:35:44;;;;;;;7.53;5.33;;;;;;;13.74;100.00;96903.03;5025924;28;20184;-82
2023/10/20 03:38:10;;;;;;;5.23;4.27;;;;;;;13.75;100.00;96909.88;5021014;28;20278;-82
2023/10/20 03:40:40;;;;;;;4.43;4.03;;;;;;;13.73;100.00;96912.59;5022710;28;20195;-81
2023/10/20 03:43:08;;;;;;;4.40;4.00;;;;;;;13.71;100.00;96904.91;5024145;28;20257;-81
2023/10/20 03:45:49;;;;;;;4.47;3.90;;;;;;;13.70;100.00;96892.84;5022416;28;20765;-82
2023/10/20 03:48:15;;;;;;;4.70;4.30;;;;;;;13.68;100.00;96881.78;5023237;28;20194;-82
2023/10/20 03:50:42;;;;;;;3.83;3.53;;;;;;;13.70;100.00;96871.25;5027380;28;20236;-82
2023/10/20 03:53:07;;;;;;;3.77;3.23;;;;;;;13.69;100.00;96861.81;5020400;28;20233;-80
2023/10/20 03:55:35;;;;;;;4.53;3.00;;;;;;;13.72;100.00;96852.00;5032535;28;20219;-81
2023/10/20 03:58:01;;;;;;;5.53;3.57;;;;;;;13.72;100.00;96867.59;5028286;28;20231;-81
2023/10/20 04:00:29;;;;;;;3.60;3.30;;;;;;;13.72;100.00;96880.59;5024516;28;20193;-79
2023/10/20 04:02:56;;;;;;;5.90;2.80;;;;;;;13.80;100.00;96866.19;5025681;28;20204;-80
2023/10/20 04:05:23;;;;;;;2.30;2.10;;;;;;;13.86;100.00;96855.28;5021768;28;20654;-81
2023/10/20 04:07:48;;;;;;;2.50;2.30;;;;;;;13.81;100.00;96865.25;5022606;28;20213;-81
2023/10/20 04:10:14;;;;;;;2.37;2.10;;;;;;;13.83;100.00;96847.75;5045241;28;20233;-80
2023/10/20 04:12:41;;;;;;;3.53;2.40;;;;;;;13.90;100.00;96858.50;5034449;28;20200;-80
2023/10/20 04:15:09;;;;;;;4.53;2.63;;;;;;;13.96;100.00;96848.47;5033207;28;20230;-81
2023/10/20 04:17:38;;;;;;;3.07;2.77;;;;;;;13.91;100.00;96844.56;5029615;28;20186;-81
2023/10/20 04:20:15;;;;;;;3.27;2.53;;;;;;;13.92;100.00;96843.59;5027808;28;20207;-79
2023/10/20 04:22:44;;;;;;;4.20;2.70;;;;;;;13.94;100.00;96832.16;5017717;28;20211;-80
2023/10/20 04:25:13;;;;;;;2.90;2.10;;;;;;;13.92;100.00;96815.84;5011100;28;20913;-81
2023/10/20 04:27:49;;;;;;;2.87;2.67;;;;;;;13.90;100.00;96803.94;5052901;28;20831;-82
2023/10/20 04:52:55;;;;;;;3.30;3.00;;;;;;;13.93;100.00;96679.72;5019314;28;20204;-82
2023/10/20 05:00:40;;;;;;;3.17;2.70;;;;;;;13.97;100.00;96651.72;5022301;28;20198;-84
2023/10/20 05:05:44;;;;;;;3.33;2.37;;;;;;;13.96;100.00;96627.50;5019283;28;20216;-82
2023/10/20 05:10:37;;;;;;;2.60;2.40;;;;;;;13.91;100.00;96628.84;5034264;28;20192;-84
2023/10/20 05:13:03;;;;;;;2.53;2.33;;;;;;;13.92;100.00;96630.44;5022065;28;20218;-83
2023/10/20 05:15:32;;;;;;;3.33;2.27;;;;;;;13.91;100.00;96610.63;5022271;28;20183;-81
2023/10/20 05:17:57;;;;;;;2.10;2.00;;;;;;;13.90;100.00;96603.78;5020787;28;20233;-83
2023/10/20 05:20:26;;;;;;;2.50;1.97;;;;;;;13.92;100.00;96596.66;5018765;28;20196;-81
2023/10/20 05:22:51;;;;;;;1.87;1.70;;;;;;;13.94;100.00;96590.41;5023537;28;20221;-76
2023/10/20 05:25:17;;;;;;;2.30;2.00;;;;;;;13.97;100.00;96595.38;5019210;28;20667;-77
2023/10/20 05:27:43;;;;;;;2.67;2.10;;;;;;;14.01;100.00;96588.13;5024237;28;20197;-79
2023/10/20 05:30:09;;;;;;;2.87;2.10;;;;;;;14.03;100.00;96597.44;5021373;28;20714;-78
2023/10/20 05:32:38;;;;;;;3.57;2.17;;;;;;;14.03;100.00;96575.84;5029141;28;20207;-80
2023/10/20 05:35:04;;;;;;;4.47;2.60;;;;;;;14.03;100.00;96555.84;5016888;28;20600;-80
2023/10/20 05:37:30;;;;;;;3.03;2.10;;;;;;;14.00;100.00;96553.50;5026399;28;20679;-80
2023/10/20 05:39:56;;;;;;;3.87;2.60;;;;;;;13.97;100.00;96553.78;5021958;28;20188;-80
2023/10/20 05:42:21;;;;;;;2.90;2.60;;;;;;;13.96;100.00;96546.09;5015602;28;20214;-82
2023/10/20 05:45:03;;;;;;;3.73;2.60;;;;;;;13.90;100.00;96539.63;5010601;28;20221;-77
2023/10/20 05:47:31;;;;;;;3.07;2.80;;;;;;;13.89;100.00;96524.97;5011690;28;20275;-83
2023/10/20 05:49:57;;;;;;;3.33;2.97;;;;;;;13.84;100.00;96521.94;5014861;28;20573;-80
2023/10/20 05:52:23;;;;;;;4.00;3.63;;;;;;;13.84;100.00;96509.78;5018552;28;20202;-81
2023/10/20 05:54:49;;;;;;;4.33;3.37;;;;;;;13.82;100.00;96493.47;5015562;28;20206;-81
2023/10/20 05:57:15;;;;;;;3.33;3.07;;;;;;;13.81;100.00;96493.63;5020291;28;20182;-81
2023/10/20 05:59:41;;;;;;;3.97;2.80;;;;;;;13.77;100.00;96474.03;5022974;28;20205;-80
2023/10/20 06:02:07;;;;;;;3.57;3.27;;;;;;;13.75;100.00;96462.94;5013422;28;20804;-81
2023/10/20 06:04:34;;;;;;;3.90;3.60;;;;;;;13.74;100.00;96432.69;5020845;28;20217;-81
2023/10/20 06:06:59;;;;;;;4.00;3.60;;;;;;;13.73;100.00;96424.09;5014523;28;20249;-81
2023/10/20 06:09:25;;;;;;;3.57;3.27;;;;;;;13.70;100.00;96419.97;5024167;28;20217;-83
2023/10/20 06:11:53;;;;;;;3.87;3.27;;;;;;;13.69;100.00;96401.91;5024537;28;20189;-80
2023/10/20 06:14:20;;;;;;;4.63;4.07;;;;;;;13.67;100.00;96412.44;5040412;28;20466;-83
2023/10/20 06:16:45;;;;;;;3.93;3.60;;;;;;;13.66;100.00;96394.38;5035749;28;20196;-79
2023/10/20 06:19:10;;;;;;;5.20;3.73;;;;;;;13.66;100.00;96400.41;5017239;28;21209;-81
2023/10/20 06:21:36;;;;;;;4.67;4.00;;;;;;;13.64;100.00;96368.53;5008949;28;20187;-79
2023/10/20 06:24:02;;;;;;;3.90;3.60;;;;;;;13.65;100.00;96392.72;5014194;28;20259;-75
2023/10/20 06:26:27;;;;;;;4.93;3.70;;;;;;;13.65;100.00;96375.38;5016644;28;20218;-81
2023/10/20 06:28:52;;;;;;;4.77;4.37;;;;;;;13.66;100.00;96399.56;5021675;28;20268;-80
2023/10/20 06:31:29;;;;;;;5.00;4.50;;;;;;;13.66;100.00;96394.38;5019494;28;20188;-78
2023/10/20 06:34:23;;;;;;;5.37;4.00;;;;;;;13.64;100.00;96401.47;5024055;28;20215;-81
2023/10/20 06:36:47;;;;;;;5.00;4.50;;;;;;;13.63;100.00;96394.63;5026701;28;20223;-82
2023/10/20 06:39:18;;;;;;;4.90;4.57;;;;;;;13.61;100.00;96394.75;5015699;28;20191;-83
2023/10/20 06:41:44;;;;;;;5.33;4.93;;;;;;;13.63;100.00;96399.81;5022291;28;20201;-83
2023/10/20 06:44:09;;;;;;;4.97;4.50;;;;;;;13.63;100.00;96376.44;5021858;28;20252;-85
2023/10/20 06:46:35;;;;;;;5.37;4.87;;;;;;;13.62;100.00;96361.81;5019853;28;20271;-81
2023/10/20 06:49:00;;;;;;;5.80;5.20;;;;;;;13.61;100.00;96368.78;5019467;28;20223;-82
2023/10/20 06:51:25;;;;;;;6.30;4.90;;;;;;;13.55;100.00;96351.94;5021866;28;20179;-81
2023/10/20 06:53:51;;;;;;;5.60;4.40;;;;;;;13.56;100.00;96352.75;5020443;28;20310;-81
2023/10/20 06:56:16;;;;;;;5.00;4.60;;;;;;;13.56;100.00;96357.94;5022485;28;20181;-79
2023/10/20 06:58:42;;;;;;;5.67;4.97;;;;;;;13.59;100.00;96368.09;5018549;28;20565;-82
2023/10/20 07:01:08;;;;;;;5.33;4.87;;;;;;;13.62;100.00;96380.81;5019834;28;20184;-83
2023/10/20 07:03:34;;;;;;;5.60;5.10;;;;;;;13.63;100.00;96389.44;5026383;28;20208;-84
2023/10/20 07:06:00;;;;;;;5.83;5.20;;;;;;;13.58;100.00;96395.00;5026854;28;20204;-81
2023/10/20 07:08:26;;;;;;;5.43;4.93;;;;;;;13.60;100.00;96393.13;5019305;28;20177;-79
2023/10/20 07:10:52;;;;;;;5.43;4.90;;;;;;;13.60;100.00;96380.13;5013097;28;20347;-81
2023/10/20 07:13:17;;;;;;;5.50;4.93;;;;;;;13.65;100.00;96390.97;5017837;28;20210;-84
2023/10/20 07:15:43;;;;;;;4.53;4.10;;;;;;;13.69;100.00;96384.53;5017906;28;20191;-84
2023/10/20 07:18:12;;;;;;;4.57;4.23;;;;;;;13.77;100.00;96393.47;5025642;28;20561;-85
2023/10/20 07:20:39;;;;;;;4.90;4.50;;;;;;;13.82;100.00;96392.13;5019042;28;20630;-85
2023/10/20 07:23:06;;;;;;;4.40;3.93;;;;;;;13.83;100.00;96398.97;5017334;28;20208;-85
2023/10/20 07:25:34;;;;;;;3.97;3.60;;;;;;;13.76;100.00;96423.00;5016994;28;20320;-85
2023/10/20 07:28:00;;;;;;;4.00;3.60;;;;;;;13.74;100.00;96401.53;5017516;28;20204;-79
2023/10/20 07:30:28;;;;;;;4.03;3.10;;;;;;;13.76;100.00;96391.81;5019104;28;20193;-81
2023/10/20 07:32:54;;;;;;;3.33;2.87;;;;;;;13.82;100.00;96399.91;5025861;28;20922;-82
2023/10/20 07:35:19;;;;;;;4.07;3.57;;;;;;;13.92;100.00;96407.75;5021625;28;20182;-83
2023/10/20 07:37:45;;;;;;;5.40;3.37;;;;;;;13.96;100.00;96429.94;5018593;28;20200;-80
2023/10/20 07:40:10;;;;;;;3.07;2.77;;;;;;;14.03;100.00;96427.66;5012362;28;20288;-77
2023/10/20 07:42:39;;;;;;;4.00;3.23;;;;;;;14.05;100.00;96454.34;5020155;28;20464;-83
2023/10/20 07:45:07;;;;;;;6.97;3.53;;;;;;;14.08;100.00;96467.06;5024681;28;20226;-80
2023/10/20 07:47:33;;;;;;;3.63;3.33;;;;;;;14.08;100.00;96476.66;5025557;28;20192;-80
2023/10/20 07:50:00;;;;;;;3.10;2.80;;;;;;;14.11;100.00;96459.00;5019484;28;20577;-83
2023/10/20 07:52:26;;;;;;;4.47;3.13;;;;;;;14.09;100.00;96468.72;5026523;28;20210;-83
2023/10/20 07:54:51;;;;;;;3.13;2.83;;;;;;;14.18;100.00;96477.50;5025762;28;20187;-85
2023/10/20 07:57:18;;;;;;;3.40;3.10;;;;;;;14.31;100.00;96492.91;5029051;28;20190;-85
2023/10/20 07:59:45;;;;;;;3.73;3.07;;;;;;;14.36;100.00;96514.16;5029883;28;20253;-84
2023/10/20 08:02:10;;;;;;;4.73;3.90;;;;;;;14.41;100.00;96522.38;5024701;28;20187;-85
2023/10/20 08:04:41;;;;;;;3.37;3.07;;;;;;;14.30;100.00;96522.47;5021942;28;20222;-82
2023/10/20 08:07:09;;;;;;;3.30;3.00;;;;;;;14.43;100.00;96540.47;5029903;28;20185;-85
2023/10/20 08:09:36;;;;;;;3.90;3.60;;;;;;;14.50;100.00;96557.19;5034278;28;20186;-85
2023/10/20 08:12:02;;;;;;;3.20;3.00;;;;;;;14.55;100.00;96562.81;5020128;28;20727;-83
2023/10/20 08:14:28;;;;;;;3.50;3.20;;;;;;;14.44;100.00;96568.94;5047886;28;20254;-81
2023/10/20 08:16:53;;;;;;;4.07;3.70;;;;;;;14.56;100.00;96584.44;5054586;28;20161;-84
2023/10/20 08:19:18;;;;;;;4.23;3.43;;;;;;;14.68;100.00;96600.84;5034408;28;20190;-85
2023/10/20 08:21:44;;;;;;;4.30;3.17;;;;;;;14.74;100.00;96629.78;5030732;28;20184;-87
2023/10/20 08:24:10;;;;;;;3.57;3.30;;;;;;;14.80;100.00;96618.00;5030949;28;20213;-81
2023/10/20 08:26:36;;;;;;;3.40;3.10;;;;;;;14.85;100.00;96626.25;5025948;28;20651;-83
2023/10/20 08:29:05;;;;;;;2.90;2.70;;;;;;;14.85;100.00;96626.25;5027480;28;20240;-81
2023/10/20 08:31:30;;;;;;;4.00;3.20;;;;;;;14.84;100.00;96628.97;5027375;28;20634;-84
2023/10/20 08:33:57;;;;;;;2.97;2.77;;;;;;;14.91;100.00;96630.94;5023627;28;20217;-84
2023/10/20 08:36:22;;;;;;;3.07;2.87;;;;;;;15.00;100.00;96636.31;5014648;28;20609;-85
2023/10/20 08:38:50;;;;;;;3.27;2.83;;;;;;;15.09;100.00;96630.31;5016022;28;20182;-86
2023/10/20 08:41:21;;;;;;;3.10;2.90;;;;;;;15.19;100.00;96635.53;5028315;28;20183;-83
2023/10/20 08:43:47;;;;;;;3.10;2.90;;;;;;;15.27;100.00;96642.69;5023029;28;20210;-84
2023/10/20 08:46:16;;;;;;;4.40;3.87;;;;;;;15.29;100.00;96652.00;5021884;28;20195;-83
2023/10/20 08:48:43;;;;;;;3.70;3.30;;;;;;;15.37;100.00;96667.81;5022655;28;20183;-82
2023/10/20 08:51:11;;;;;;;4.30;3.50;;;;;;;15.41;100.00;96676.19;5027793;28;20644;-84
2023/10/20 08:53:37;;;;;;;4.30;4.00;;;;;;;15.43;100.00;96682.09;5026469;28;20212;-84
2023/10/20 08:56:04;;;;;;;4.57;4.17;;;;;;;15.46;100.00;96688.81;5020852;28;20682;-83
2023/10/20 08:58:30;;;;;;;4.80;4.50;;;;;;;15.43;100.00;96692.53;5027615;28;20683;-84
2023/10/20 09:00:57;;;;;;;4.47;4.07;;;;;;;15.50;100.00;96698.03;5028499;28;20172;-84
2023/10/20 09:03:25;;;;;;;5.63;5.13;;;;;;;15.51;100.00;96703.09;5022660;28;20207;-82
2023/10/20 09:05:51;;;;;;;5.83;5.43;;;;;;;15.51;100.00;96703.09;5017565;28;20298;-84
2023/10/20 09:08:17;;;;;;;6.30;5.70;;;;;;;15.47;100.00;96713.91;5025363;28;20179;-83
2023/10/20 09:10:45;;;;;;;6.20;5.70;;;;;;;15.50;100.00;96719.69;5011361;28;20232;-83
2023/10/20 09:13:11;;;;;;;5.60;5.20;;;;;;;15.59;100.00;96720.66;5018260;28;20204;-82
2023/10/20 09:15:37;;;;;;;6.40;5.80;;;;;;;15.63;100.00;96716.84;5022016;28;20276;-83
2023/10/20 09:18:06;;;;;;;5.53;5.13;;;;;;;15.78;100.00;96713.84;5019939;28;20283;-82
2023/10/20 09:20:32;;;;;;;5.33;4.93;;;;;;;15.82;100.00;96723.88;5016427;28;20277;-80
2023/10/20 09:22:57;;;;;;;5.03;4.63;;;;;;;15.82;100.00;96728.28;5023543;28;20988;-81
2023/10/20 09:25:22;;;;;;;5.47;4.97;;;;;;;15.79;100.00;96718.94;5021506;28;20212;-83
2023/10/20 09:27:48;;;;;;;5.40;4.90;;;;;;;15.86;100.00;96721.88;5024876;28;20982;-83
2023/10/20 09:30:15;;;;;;;5.73;5.20;;;;;;;15.85;100.00;96718.41;5022461;28;20583;-81
2023/10/20 09:32:40;;;;;;;6.10;5.50;;;;;;;15.94;100.00;96721.19;5019168;28;20227;-83
2023/10/20 09:35:07;;;;;;;5.10;4.60;;;;;;;16.06;100.00;96724.47;5024382;28;20172;-81
2023/10/20 09:37:36;;;;;;;5.53;5.03;;;;;;;16.09;100.00;96738.09;5023917;28;20655;-83
2023/10/20 09:40:05;;;;;;;5.23;4.67;;;;;;;16.32;100.00;96737.00;5026487;28;20183;-84
2023/10/20 09:42:53;;;;;;;4.83;4.50;;;;;;;16.52;100.00;96735.22;5023161;28;20279;-85
2023/10/20 09:45:25;;;;;;;4.80;4.40;;;;;;;16.63;100.00;96735.03;5025772;28;20319;-83
2023/10/20 09:47:57;;;;;;;4.70;4.30;;;;;;;16.65;100.00;96748.78;5016501;28;20182;-82
2023/10/20 09:50:23;;;;;;;5.17;4.77;;;;;;;16.65;100.00;96746.19;5030502;28;20269;-85
2023/10/20 09:52:50;;;;;;;5.23;4.73;;;;;;;16.59;100.00;96750.19;5016362;28;20198;-82
2023/10/20 09:55:17;;;;;;;5.57;5.07;;;;;;;16.64;100.00;96751.56;5023853;28;20706;-85
2023/10/20 09:57:43;;;;;;;5.03;4.57;;;;;;;16.62;100.00;96756.91;5021263;28;20640;-82
2023/10/20 10:00:09;;;;;;;5.13;4.60;;;;;;;16.57;100.00;96749.47;5018377;28;20264;-82
2023/10/20 10:02:34;;;;;;;4.20;3.80;;;;;;;16.67;100.00;96761.69;5023092;28;20238;-84
2023/10/20 10:05:00;;;;;;;4.80;4.40;;;;;;;16.71;100.00;96763.88;5019904;28;20278;-81
2023/10/20 10:07:44;;;;;;;4.63;4.10;;;;;;;16.66;100.00;96762.66;5020356;28;20688;-83
2023/10/20 10:10:19;;;;;;;4.33;4.03;;;;;;;16.64;100.00;96754.97;5027644;28;20180;-80
2023/10/20 10:12:57;;;;;;;3.63;3.33;;;;;;;16.70;100.00;96753.59;5028978;28;20207;-82
2023/10/20 10:15:36;;;;;;;3.50;3.20;;;;;;;16.73;100.00;96748.91;5034996;28;20177;-81
2023/10/20 10:18:08;;;;;;;3.70;3.40;;;;;;;16.87;100.00;96746.81;5042193;28;20193;-82
2023/10/20 10:20:41;;;;;;;3.70;3.30;;;;;;;17.01;100.00;96749.03;5022991;28;20222;-82
2023/10/20 10:23:10;;;;;;;3.23;2.93;;;;;;;17.20;100.00;96768.22;5015191;28;20215;-81
2023/10/20 10:25:41;;;;;;;2.73;2.43;;;;;;;17.29;100.00;96764.75;5026957;28;20192;-82
2023/10/20 10:28:17;;;;;;;3.23;2.83;;;;;;;17.35;100.00;96766.78;5021520;28;20195;-83
2023/10/20 10:30:45;;;;;;;2.90;2.70;;;;;;;17.36;100.00;96768.44;5022475;28;20182;-82
2023/10/20 10:33:12;;;;;;;2.90;2.70;;;;;;;17.53;100.00;96771.25;5020456;28;20218;-83
2023/10/20 10:35:38;;;;;;;3.00;2.80;;;;;;;17.87;100.00;96775.91;5023327;28;20176;-79
2023/10/20 10:38:27;;;;;;;2.37;2.27;;;;;;;18.16;100.00;96779.34;5023287;28;20316;-81
2023/10/20 10:40:52;;;;;;;3.40;2.43;;;;;;;18.30;100.00;96789.31;5023413;28;20193;-80
2023/10/20 10:43:22;;;;;;;3.03;2.50;;;;;;;18.49;100.00;96780.50;5019609;28;20251;-81
2023/10/20 10:45:52;;;;;;;2.20;2.00;;;;;;;18.46;100.00;96786.03;5017313;28;20224;-81
2023/10/20 10:48:18;;;;;;;2.30;2.10;;;;;;;18.56;100.00;96767.63;5025258;28;20182;-81
2023/10/20 10:50:46;;;;;;;2.53;2.10;;;;;;;18.42;100.00;96777.66;5011764;28;20191;-81
2023/10/20 10:53:12;;;;;;;2.20;2.00;;;;;;;18.39;100.00;96775.34;5015538;28;20283;-79
2023/10/20 10:55:39;;;;;;;2.23;2.03;;;;;;;18.31;100.00;96785.72;5011010;28;20168;-78
2023/10/20 10:58:14;;;;;;;1.80;1.70;;;;;;;18.24;100.00;96782.06;5012128;28;20346;-80
2023/10/20 11:00:42;;;;;;;2.27;1.30;;;;;;;17.98;100.00;96786.22;5042644;28;20736;-81
2023/10/20 11:03:08;;;;;;;1.63;1.53;;;;;;;17.64;100.00;96789.38;5020365;28;20197;-80
2023/10/20 11:05:34;;;;;;;1.63;1.53;;;;;;;17.64;100.00;96786.75;5023143;28;20934;-79
2023/10/20 11:08:07;;;;;;;1.50;1.40;;;;;;;17.57;100.00;96777.84;5019664;28;20194;-79
2023/10/20 11:10:35;;;;;;;1.73;1.40;;;;;;;17.59;100.00;96783.78;5015588;28;20248;-78
2023/10/20 11:13:05;;;;;;;1.53;1.40;;;;;;;17.46;100.00;96778.84;5021608;28;20305;-78
2023/10/20 11:15:32;;;;;;;1.23;1.13;;;;;;;17.51;100.00;96771.41;5023325;28;20654;-79
2023/10/20 11:18:00;;;;;;;2.03;0.90;;;;;;;17.55;100.00;96768.50;5018996;28;20253;-79
2023/10/20 11:20:32;;;;;;;1.80;1.23;;;;;;;17.50;100.00;96772.38;5019433;28;20180;-80
2023/10/20 11:22:58;;;;;;;2.40;0.90;;;;;;;17.54;100.00;96774.72;5020715;28;20232;-81
2023/10/20 11:25:24;;;;;;;0.83;0.83;;;;;;;17.50;100.00;96782.84;5022242;28;20287;-78
2023/10/20 11:27:54;;;;;;;1.23;0.80;;;;;;;17.50;100.00;96795.91;5023870;28;20185;-80
2023/10/20 11:30:26;;;;;;;1.00;0.90;;;;;;;17.70;100.00;96792.38;5019337;28;20281;-79
2023/10/20 11:32:53;;;;;;;0.80;0.70;;;;;;;17.59;100.00;96775.09;5025867;28;20208;-82
2023/10/20 11:35:21;;;;;;;0.67;0.50;;;;;;;17.67;100.00;96775.19;5018646;28;20271;-79
2023/10/20 11:37:51;;;;;;;1.77;0.70;;;;;;;17.63;100.00;96761.56;5027512;28;20212;-80
2023/10/20 11:40:16;;;;;;;0.60;0.50;;;;;;;17.66;100.00;96789.25;5044499;28;20230;-79
2023/10/20 11:42:42;;;;;;;0.50;0.50;;;;;;;17.80;100.00;96791.38;5018513;28;20273;-79
2023/10/20 11:45:08;;;;;;;1.40;0.70;;;;;;;17.96;100.00;96801.19;5033093;28;20216;-81
2023/10/20 11:47:33;;;;;;;1.30;0.60;;;;;;;17.99;100.00;96810.59;5022364;28;20189;-79
2023/10/20 11:50:02;;;;;;;1.33;0.40;;;;;;;18.07;100.00;96812.47;5028081;28;20219;-78
2023/10/20 11:52:28;;;;;;;3.10;0.63;;;;;;;18.02;100.00;96827.78;5019471;28;20816;-81
2023/10/20 11:54:53;;;;;;;0.93;0.50;;;;;;;17.87;100.00;96838.69;5018651;28;20265;-82
2023/10/20 11:57:19;;;;;;;0.43;0.40;;;;;;;17.95;100.00;96849.25;5022997;28;20179;-80